sensor_id;sensor_type;location;lat;lon;timestamp;temperature;humidity
26964;DHT22;14521;48.148;-1.656;2022-09-17T00:02:26;23.20;78.70
26964;DHT22;14521;48.148;-1.656;2022-09-17T00:06:02;23.00;72.90
26964;DHT22;14521;48.148;-1.656;2022-09-17T00:09:24;22.30;70.60
26964;DHT22;14521;48.148;-1.656;2022-09-17T00:12:47;21.70;71.20
26964;DHT22;14521;48.148;-1.656;2022-09-17T00:16:10;21.40;72.10
26964;DHT22;14521;48.148;-1.656;2022-09-17T00:19:32;21.20;72.40
26964;DHT22;14521;48.148;-1.656;2022-09-17T00:22:55;21.10;72.80
26964;DHT22;14521;48.148;-1.656;2022-09-17T00:26:17;21.00;72.70
26964;DHT22;14521;48.148;-1.656;2022-09-17T00:29:39;21.00;73.00
26964;DHT22;14521;48.148;-1.656;2022-09-17T00:33:02;21.00;73.50
26964;DHT22;14521;48.148;-1.656;2022-09-17T00:36:24;20.80;72.90
26964;DHT22;14521;48.148;-1.656;2022-09-17T00:39:47;20.70;73.00
26964;DHT22;14521;48.148;-1.656;2022-09-17T00:43:10;20.70;73.20
26964;DHT22;14521;48.148;-1.656;2022-09-17T00:46:39;20.60;73.10
26964;DHT22;14521;48.148;-1.656;2022-09-17T00:53:28;20.50;73.20
26964;DHT22;14521;48.148;-1.656;2022-09-17T00:56:51;20.50;73.30
26964;DHT22;14521;48.148;-1.656;2022-09-17T01:00:14;20.50;73.20
26964;DHT22;14521;48.148;-1.656;2022-09-17T01:03:37;20.50;73.20
26964;DHT22;14521;48.148;-1.656;2022-09-17T01:07:03;20.60;73.20
26964;DHT22;14521;48.148;-1.656;2022-09-17T01:21:36;20.50;73.70
26964;DHT22;14521;48.148;-1.656;2022-09-17T01:25:12;20.50;73.70
26964;DHT22;14521;48.148;-1.656;2022-09-17T01:32:22;20.20;73.70
26964;DHT22;14521;48.148;-1.656;2022-09-17T01:36:12;20.20;73.90
26964;DHT22;14521;48.148;-1.656;2022-09-17T01:47:16;20.00;74.10
26964;DHT22;14521;48.148;-1.656;2022-09-17T01:54:33;20.10;73.90
26964;DHT22;14521;48.148;-1.656;2022-09-17T02:01:26;20.00;73.40
26964;DHT22;14521;48.148;-1.656;2022-09-17T02:05:09;20.00;73.70
26964;DHT22;14521;48.148;-1.656;2022-09-17T02:08:46;20.00;73.70
26964;DHT22;14521;48.148;-1.656;2022-09-17T02:12:14;19.90;73.80
26964;DHT22;14521;48.148;-1.656;2022-09-17T02:15:46;19.90;73.80
26964;DHT22;14521;48.148;-1.656;2022-09-17T02:19:26;19.80;73.80
26964;DHT22;14521;48.148;-1.656;2022-09-17T02:22:54;19.80;73.70
26964;DHT22;14521;48.148;-1.656;2022-09-17T02:26:18;19.80;73.80
26964;DHT22;14521;48.148;-1.656;2022-09-17T02:29:43;19.80;73.90
26964;DHT22;14521;48.148;-1.656;2022-09-17T02:33:08;19.80;73.90
26964;DHT22;14521;48.148;-1.656;2022-09-17T02:36:32;19.90;74.30
26964;DHT22;14521;48.148;-1.656;2022-09-17T02:39:56;19.70;73.50
26964;DHT22;14521;48.148;-1.656;2022-09-17T02:43:40;19.60;73.80
26964;DHT22;14521;48.148;-1.656;2022-09-17T02:51:13;19.60;73.60
26964;DHT22;14521;48.148;-1.656;2022-09-17T02:54:51;19.70;73.90
26964;DHT22;14521;48.148;-1.656;2022-09-17T02:58:31;19.80;73.20
26964;DHT22;14521;48.148;-1.656;2022-09-17T03:05:27;19.50;73.00
26964;DHT22;14521;48.148;-1.656;2022-09-17T03:08:51;19.60;73.20
26964;DHT22;14521;48.148;-1.656;2022-09-17T03:12:13;19.80;73.70
26964;DHT22;14521;48.148;-1.656;2022-09-17T03:15:36;19.80;72.20
26964;DHT22;14521;48.148;-1.656;2022-09-17T03:18:58;19.70;71.70
26964;DHT22;14521;48.148;-1.656;2022-09-17T03:22:20;19.40;71.90
26964;DHT22;14521;48.148;-1.656;2022-09-17T03:25:44;19.30;72.40
26964;DHT22;14521;48.148;-1.656;2022-09-17T03:29:06;19.30;72.70
26964;DHT22;14521;48.148;-1.656;2022-09-17T03:32:28;19.40;72.90
26964;DHT22;14521;48.148;-1.656;2022-09-17T03:35:51;19.50;72.60
26964;DHT22;14521;48.148;-1.656;2022-09-17T03:39:13;19.50;72.20
26964;DHT22;14521;48.148;-1.656;2022-09-17T03:42:35;19.40;72.10
26964;DHT22;14521;48.148;-1.656;2022-09-17T03:45:57;19.20;72.50
26964;DHT22;14521;48.148;-1.656;2022-09-17T03:49:21;19.30;72.50
26964;DHT22;14521;48.148;-1.656;2022-09-17T03:52:45;19.30;72.50
26964;DHT22;14521;48.148;-1.656;2022-09-17T03:56:07;19.20;72.30
26964;DHT22;14521;48.148;-1.656;2022-09-17T03:59:30;19.10;72.60
26964;DHT22;14521;48.148;-1.656;2022-09-17T04:02:52;19.20;72.70
26964;DHT22;14521;48.148;-1.656;2022-09-17T04:06:14;19.40;73.00
26964;DHT22;14521;48.148;-1.656;2022-09-17T04:09:37;19.60;72.70
26964;DHT22;14521;48.148;-1.656;2022-09-17T04:12:59;19.50;71.80
26964;DHT22;14521;48.148;-1.656;2022-09-17T04:16:21;19.40;72.20
26964;DHT22;14521;48.148;-1.656;2022-09-17T04:19:44;19.50;72.70
26964;DHT22;14521;48.148;-1.656;2022-09-17T04:23:07;19.50;72.40
26964;DHT22;14521;48.148;-1.656;2022-09-17T04:26:30;19.60;72.40
26964;DHT22;14521;48.148;-1.656;2022-09-17T04:29:52;19.60;72.20
26964;DHT22;14521;48.148;-1.656;2022-09-17T04:33:14;19.50;72.10
26964;DHT22;14521;48.148;-1.656;2022-09-17T04:36:37;19.40;72.50
26964;DHT22;14521;48.148;-1.656;2022-09-17T04:39:59;19.50;72.30
26964;DHT22;14521;48.148;-1.656;2022-09-17T04:43:25;19.50;72.00
26964;DHT22;14521;48.148;-1.656;2022-09-17T04:46:47;19.40;72.10
26964;DHT22;14521;48.148;-1.656;2022-09-17T04:50:10;19.40;72.20
26964;DHT22;14521;48.148;-1.656;2022-09-17T04:53:32;19.40;72.20
26964;DHT22;14521;48.148;-1.656;2022-09-17T04:56:55;19.40;72.10
26964;DHT22;14521;48.148;-1.656;2022-09-17T05:00:18;19.40;72.00
26964;DHT22;14521;48.148;-1.656;2022-09-17T05:03:41;19.40;71.90
26964;DHT22;14521;48.148;-1.656;2022-09-17T05:07:03;19.30;71.90
26964;DHT22;14521;48.148;-1.656;2022-09-17T05:10:26;18.30;74.20
26964;DHT22;14521;48.148;-1.656;2022-09-17T05:13:48;17.80;76.20
26964;DHT22;14521;48.148;-1.656;2022-09-17T05:17:10;17.90;77.20
26964;DHT22;14521;48.148;-1.656;2022-09-17T05:20:33;18.60;76.00
26964;DHT22;14521;48.148;-1.656;2022-09-17T05:23:55;19.00;75.20
26964;DHT22;14521;48.148;-1.656;2022-09-17T05:27:17;19.10;74.20
26964;DHT22;14521;48.148;-1.656;2022-09-17T05:30:40;19.10;74.00
26964;DHT22;14521;48.148;-1.656;2022-09-17T05:34:02;19.10;74.20
26964;DHT22;14521;48.148;-1.656;2022-09-17T05:37:24;19.10;74.00
26964;DHT22;14521;48.148;-1.656;2022-09-17T05:40:47;19.10;74.00
26964;DHT22;14521;48.148;-1.656;2022-09-17T05:44:10;19.10;73.80
26964;DHT22;14521;48.148;-1.656;2022-09-17T05:47:38;19.10;73.90
26964;DHT22;14521;48.148;-1.656;2022-09-17T05:51:00;19.10;73.70
26964;DHT22;14521;48.148;-1.656;2022-09-17T05:54:23;19.30;73.90
26964;DHT22;14521;48.148;-1.656;2022-09-17T05:57:46;19.30;73.00
26964;DHT22;14521;48.148;-1.656;2022-09-17T06:01:08;19.50;73.80
26964;DHT22;14521;48.148;-1.656;2022-09-17T06:04:36;19.60;73.10
26964;DHT22;14521;48.148;-1.656;2022-09-17T06:07:59;19.60;72.60
26964;DHT22;14521;48.148;-1.656;2022-09-17T06:11:21;19.60;72.80
26964;DHT22;14521;48.148;-1.656;2022-09-17T06:14:43;19.60;72.80
26964;DHT22;14521;48.148;-1.656;2022-09-17T06:18:06;19.60;73.10
26964;DHT22;14521;48.148;-1.656;2022-09-17T06:21:28;19.60;73.90
26964;DHT22;14521;48.148;-1.656;2022-09-17T06:24:51;19.60;74.80
26964;DHT22;14521;48.148;-1.656;2022-09-17T06:28:13;19.90;74.80
26964;DHT22;14521;48.148;-1.656;2022-09-17T06:31:35;19.80;74.10
26964;DHT22;14521;48.148;-1.656;2022-09-17T06:34:57;20.00;74.10
26964;DHT22;14521;48.148;-1.656;2022-09-17T06:38:20;19.90;73.80
26964;DHT22;14521;48.148;-1.656;2022-09-17T06:41:42;19.80;73.70
26964;DHT22;14521;48.148;-1.656;2022-09-17T06:45:05;19.80;73.80
26964;DHT22;14521;48.148;-1.656;2022-09-17T06:48:35;19.90;73.80
26964;DHT22;14521;48.148;-1.656;2022-09-17T06:51:57;20.00;73.70
26964;DHT22;14521;48.148;-1.656;2022-09-17T06:55:20;20.00;73.60
26964;DHT22;14521;48.148;-1.656;2022-09-17T06:58:42;20.00;73.50
26964;DHT22;14521;48.148;-1.656;2022-09-17T07:02:05;20.20;74.30
26964;DHT22;14521;48.148;-1.656;2022-09-17T07:05:29;20.10;73.10
26964;DHT22;14521;48.148;-1.656;2022-09-17T07:08:51;20.20;73.10
26964;DHT22;14521;48.148;-1.656;2022-09-17T07:12:13;20.20;73.20
26964;DHT22;14521;48.148;-1.656;2022-09-17T07:15:36;20.20;73.30
26964;DHT22;14521;48.148;-1.656;2022-09-17T07:18:58;20.30;73.50
26964;DHT22;14521;48.148;-1.656;2022-09-17T07:22:23;20.40;73.30
26964;DHT22;14521;48.148;-1.656;2022-09-17T07:25:50;20.50;73.10
26964;DHT22;14521;48.148;-1.656;2022-09-17T07:29:13;20.60;72.80
26964;DHT22;14521;48.148;-1.656;2022-09-17T07:32:35;20.80;72.40
26964;DHT22;14521;48.148;-1.656;2022-09-17T07:35:59;20.90;72.50
26964;DHT22;14521;48.148;-1.656;2022-09-17T07:39:22;21.00;72.00
26964;DHT22;14521;48.148;-1.656;2022-09-17T07:42:44;21.00;72.10
26964;DHT22;14521;48.148;-1.656;2022-09-17T07:46:12;21.10;72.20
26964;DHT22;14521;48.148;-1.656;2022-09-17T07:49:35;21.20;71.90
26964;DHT22;14521;48.148;-1.656;2022-09-17T07:52:57;21.30;71.80
26964;DHT22;14521;48.148;-1.656;2022-09-17T07:56:20;21.40;71.40
26964;DHT22;14521;48.148;-1.656;2022-09-17T07:59:42;21.50;71.50
26964;DHT22;14521;48.148;-1.656;2022-09-17T08:03:04;21.60;71.50
26964;DHT22;14521;48.148;-1.656;2022-09-17T08:06:28;21.70;71.20
26964;DHT22;14521;48.148;-1.656;2022-09-17T08:09:50;21.80;72.00
26964;DHT22;14521;48.148;-1.656;2022-09-17T08:13:13;21.90;71.30
26964;DHT22;14521;48.148;-1.656;2022-09-17T08:16:35;22.00;70.90
26964;DHT22;14521;48.148;-1.656;2022-09-17T08:19:57;22.00;71.40
26964;DHT22;14521;48.148;-1.656;2022-09-17T08:23:19;22.00;70.60
26964;DHT22;14521;48.148;-1.656;2022-09-17T08:26:42;22.00;70.90
26964;DHT22;14521;48.148;-1.656;2022-09-17T08:30:07;22.10;71.80
26964;DHT22;14521;48.148;-1.656;2022-09-17T08:33:31;22.20;71.60
26964;DHT22;14521;48.148;-1.656;2022-09-17T08:36:54;22.30;71.70
26964;DHT22;14521;48.148;-1.656;2022-09-17T08:40:19;22.40;71.70
26964;DHT22;14521;48.148;-1.656;2022-09-17T08:47:41;22.40;70.90
26964;DHT22;14521;48.148;-1.656;2022-09-17T08:54:49;22.50;70.10
26964;DHT22;14521;48.148;-1.656;2022-09-17T09:02:13;22.60;70.60
26964;DHT22;14521;48.148;-1.656;2022-09-17T09:05:44;22.60;70.00
26964;DHT22;14521;48.148;-1.656;2022-09-17T09:09:14;22.60;70.30
26964;DHT22;14521;48.148;-1.656;2022-09-17T09:12:38;22.60;69.80
26964;DHT22;14521;48.148;-1.656;2022-09-17T09:16:04;22.60;68.70
26964;DHT22;14521;48.148;-1.656;2022-09-17T09:19:31;22.70;70.50
26964;DHT22;14521;48.148;-1.656;2022-09-17T09:22:57;22.90;71.40
26964;DHT22;14521;48.148;-1.656;2022-09-17T09:26:46;22.80;70.20
26964;DHT22;14521;48.148;-1.656;2022-09-17T09:30:14;22.80;70.30
26964;DHT22;14521;48.148;-1.656;2022-09-17T09:33:39;22.80;69.60
26964;DHT22;14521;48.148;-1.656;2022-09-17T09:37:22;22.80;69.60
26964;DHT22;14521;48.148;-1.656;2022-09-17T09:40:55;22.80;69.10
26964;DHT22;14521;48.148;-1.656;2022-09-17T09:44:19;22.80;70.80
26964;DHT22;14521;48.148;-1.656;2022-09-17T09:48:05;22.80;71.00
26964;DHT22;14521;48.148;-1.656;2022-09-17T09:52:01;22.90;70.40
26964;DHT22;14521;48.148;-1.656;2022-09-17T09:58:52;22.80;62.60
26964;DHT22;14521;48.148;-1.656;2022-09-17T10:02:16;22.70;62.70
26964;DHT22;14521;48.148;-1.656;2022-09-17T10:05:39;22.60;61.40
26964;DHT22;14521;48.148;-1.656;2022-09-17T10:09:14;22.50;61.20
26964;DHT22;14521;48.148;-1.656;2022-09-17T10:12:37;22.40;61.00
26964;DHT22;14521;48.148;-1.656;2022-09-17T10:19:41;22.20;60.90
26964;DHT22;14521;48.148;-1.656;2022-09-17T10:23:05;22.10;60.50
26964;DHT22;14521;48.148;-1.656;2022-09-17T10:26:33;22.10;60.00
26964;DHT22;14521;48.148;-1.656;2022-09-17T10:30:00;22.20;60.60
26964;DHT22;14521;48.148;-1.656;2022-09-17T10:33:30;22.20;59.60
26964;DHT22;14521;48.148;-1.656;2022-09-17T10:36:54;22.40;62.00
26964;DHT22;14521;48.148;-1.656;2022-09-17T10:43:40;22.60;59.50
26964;DHT22;14521;48.148;-1.656;2022-09-17T10:47:17;22.50;58.70
26964;DHT22;14521;48.148;-1.656;2022-09-17T10:50:48;22.50;60.20
26964;DHT22;14521;48.148;-1.656;2022-09-17T11:01:53;22.50;56.20
26964;DHT22;14521;48.148;-1.656;2022-09-17T11:13:11;22.60;60.60
26964;DHT22;14521;48.148;-1.656;2022-09-17T11:34:59;22.20;58.90
26964;DHT22;14521;48.148;-1.656;2022-09-17T11:38:49;22.20;58.80
26964;DHT22;14521;48.148;-1.656;2022-09-17T11:42:26;22.00;58.80
26964;DHT22;14521;48.148;-1.656;2022-09-17T11:46:24;21.90;58.90
26964;DHT22;14521;48.148;-1.656;2022-09-17T11:57:36;21.90;58.80
26964;DHT22;14521;48.148;-1.656;2022-09-17T12:01:03;22.10;59.10
26964;DHT22;14521;48.148;-1.656;2022-09-17T12:04:36;22.10;59.10
